»·PEaware :: N416JK KSBA-KSBD

N416JK :: KSBA-KSBD

FLIGHT INFORMATION

Flight Status: Arrived
Operator: Privately registered:
United States
More flights under this callsign
Pilot: John K. (4202)
Aircraft: PIPER PA-46-310/350P MALIBU MIRAGE
(PA46)
More flights by this aircraft type
Origin: KSBA Santa Barbara Mun
United States
Destination: KSBD San Bernardino Intl
United States
More flights between these airports :: More routes between these airports
Route: KWANG CMA VNY V186 PDZ
File this flight plan on PilotEdge
Remarks:
Altitude:
(Current/Filed)
5,000ft
Speed:
(Current/Filed)
180kts
Departed: 10-Aug-19 07:36 AM
Arrived: 10-Aug-19 08:28 AM
Distance/Time
Traveled:
130nm/0:51
Distance/Time
To Go:
Arrived

Flight Plot

Page will automatically refresh every two minutes.


Map Options




Map Legend


Flown Route
Filed Route
Departure Airport
Arrival Airport
Navaid (VOR, NDB)
Fix

Horizontal Profiles

Position Reports

Time Latitude Longitude Heading Altitude Ground
Speed
10-Aug-19 07:28 34.432430 -119.835546 70 17ft 0kts
10-Aug-19 07:29 34.432430 -119.835546 70 17ft 0kts
10-Aug-19 07:30 34.432430 -119.835546 70 17ft 0kts
10-Aug-19 07:31 34.432430 -119.835546 70 17ft 0kts
10-Aug-19 07:32 34.432430 -119.835546 70 17ft 0kts
10-Aug-19 07:33 34.428865 -119.835230 174 17ft 0kts
10-Aug-19 07:34 34.427933 -119.835651 266 17ft 19kts
10-Aug-19 07:35 34.424175 -119.865673 264 588ft 129kts
10-Aug-19 07:36 34.398450 -119.888479 154 1361ft 171kts
10-Aug-19 07:37 34.357637 -119.861407 152 2336ft 167kts
10-Aug-19 07:38 34.319390 -119.831806 114 3313ft 167kts
10-Aug-19 07:39 34.316344 -119.776798 92 4321ft 165kts
10-Aug-19 07:40 34.312693 -119.720899 93 4998ft 180kts
10-Aug-19 07:41 34.308458 -119.658247 93 5000ft 195kts
10-Aug-19 07:42 34.303977 -119.593032 93 4999ft 198kts
10-Aug-19 07:43 34.299418 -119.527084 93 4999ft 199kts
10-Aug-19 07:44 34.294775 -119.460418 93 4999ft 199kts
10-Aug-19 07:45 34.290137 -119.394442 93 4999ft 199kts
10-Aug-19 07:46 34.285520 -119.329349 93 4998ft 198kts
10-Aug-19 07:47 34.280956 -119.265332 93 4999ft 189kts
10-Aug-19 07:48 34.276462 -119.202525 93 4999ft 187kts
10-Aug-19 07:49 34.271994 -119.140745 93 5000ft 186kts
10-Aug-19 07:50 34.267487 -119.078893 93 5000ft 186kts
10-Aug-19 07:51 34.262963 -119.017259 93 5000ft 186kts
10-Aug-19 07:52 34.258337 -118.954626 93 5000ft 186kts
10-Aug-19 07:53 34.253773 -118.893110 94 4999ft 186kts
10-Aug-19 07:54 34.249533 -118.833799 93 4998ft 186kts
10-Aug-19 07:55 34.244992 -118.772988 94 4999ft 186kts
10-Aug-19 07:56 34.240295 -118.711096 94 4997ft 186kts
10-Aug-19 07:57 34.235642 -118.650162 94 4999ft 186kts
10-Aug-19 07:58 34.230914 -118.588681 94 4999ft 186kts
10-Aug-19 07:59 34.226144 -118.527186 94 4999ft 186kts
10-Aug-19 08:00 34.215714 -118.466178 109 5000ft 187kts
10-Aug-19 08:01 34.198178 -118.408608 109 4999ft 187kts
10-Aug-19 08:02 34.180737 -118.351258 109 5000ft 187kts
10-Aug-19 08:03 34.162963 -118.292876 109 4997ft 187kts
10-Aug-19 08:04 34.145024 -118.234043 109 5000ft 187kts
10-Aug-19 08:05 34.127243 -118.175853 109 4982ft 188kts
10-Aug-19 08:06 34.109667 -118.118478 109 4999ft 187kts
10-Aug-19 08:08 34.091934 -118.060690 109 5000ft 187kts
10-Aug-19 08:09 34.074108 -118.002774 109 5000ft 187kts
10-Aug-19 08:10 34.056553 -117.945770 109 5000ft 187kts
10-Aug-19 08:11 34.039052 -117.889001 109 4999ft 187kts
10-Aug-19 08:12 34.021577 -117.831782 110 5005ft 187kts
10-Aug-19 08:13 34.003797 -117.774234 110 5008ft 187kts
10-Aug-19 08:14 33.985274 -117.719878 112 5007ft 186kts
10-Aug-19 08:15 33.966813 -117.667454 112 5007ft 181kts
10-Aug-19 08:16 33.949624 -117.618723 112 5006ft 173kts
10-Aug-19 08:17 33.931753 -117.568119 112 4997ft 162kts
10-Aug-19 08:18 33.939310 -117.526629 21 4994ft 142kts
10-Aug-19 08:19 33.973065 -117.504358 28 4992ft 140kts
10-Aug-19 08:20 34.009668 -117.485481 15 4142ft 158kts
10-Aug-19 08:21 34.030376 -117.447729 67 3643ft 143kts
10-Aug-19 08:22 34.042025 -117.410211 64 3288ft 109kts
10-Aug-19 08:23 34.052624 -117.376657 65 3285ft 106kts
10-Aug-19 08:24 34.062796 -117.343818 64 3303ft 113kts
10-Aug-19 08:25 34.071956 -117.312101 64 2446ft 98kts
10-Aug-19 08:26 34.081257 -117.281309 65 1747ft 119kts
10-Aug-19 08:27 34.093560 -117.240864 69 1161ft 82kts
10-Aug-19 08:27 34.095878 -117.236082 331 1161ft 0kts
10-Aug-19 08:29 34.100036 -117.238929 331 1161ft 33kts
10-Aug-19 08:30 34.104056 -117.244142 289 1161ft 5kts
10-Aug-19 08:30 34.104394 -117.245846 199 1161ft 0kts

Navigation Log

Ident Type
Flight plan parsing failed, navigation log unavailable